sensor_id;sensor_type;location;lat;lon;timestamp;temperature;humidity
46440;DHT22;32138;50.966;6.968;2023-07-31T00:01:17;17.60;99.90
46440;DHT22;32138;50.966;6.968;2023-07-31T00:02:48;17.50;99.90
46440;DHT22;32138;50.966;6.968;2023-07-31T00:04:18;17.60;99.90
46440;DHT22;32138;50.966;6.968;2023-07-31T00:05:49;17.60;99.90
46440;DHT22;32138;50.966;6.968;2023-07-31T00:07:20;17.60;99.90
46440;DHT22;32138;50.966;6.968;2023-07-31T00:08:51;17.60;99.90
46440;DHT22;32138;50.966;6.968;2023-07-31T00:10:21;17.70;99.90
46440;DHT22;32138;50.966;6.968;2023-07-31T00:11:52;17.70;99.90
46440;DHT22;32138;50.966;6.968;2023-07-31T00:13:23;17.70;99.90
46440;DHT22;32138;50.966;6.968;2023-07-31T00:14:54;17.70;99.90
46440;DHT22;32138;50.966;6.968;2023-07-31T00:16:24;17.70;99.90
46440;DHT22;32138;50.966;6.968;2023-07-31T00:17:55;17.80;99.90
46440;DHT22;32138;50.966;6.968;2023-07-31T00:19:26;17.70;99.90
46440;DHT22;32138;50.966;6.968;2023-07-31T00:20:57;17.70;99.90
46440;DHT22;32138;50.966;6.968;2023-07-31T00:22:27;17.70;99.90
46440;DHT22;32138;50.966;6.968;2023-07-31T00:23:58;17.70;99.90
46440;DHT22;32138;50.966;6.968;2023-07-31T00:25:29;17.60;99.90
46440;DHT22;32138;50.966;6.968;2023-07-31T00:27:00;17.60;99.90
46440;DHT22;32138;50.966;6.968;2023-07-31T00:28:30;17.60;99.90
46440;DHT22;32138;50.966;6.968;2023-07-31T00:30:01;17.60;99.90
46440;DHT22;32138;50.966;6.968;2023-07-31T00:31:32;17.60;99.90
46440;DHT22;32138;50.966;6.968;2023-07-31T00:33:03;17.70;99.90
46440;DHT22;32138;50.966;6.968;2023-07-31T00:34:33;17.70;99.90
46440;DHT22;32138;50.966;6.968;2023-07-31T00:36:04;17.70;99.90
46440;DHT22;32138;50.966;6.968;2023-07-31T00:37:35;17.70;99.90
46440;DHT22;32138;50.966;6.968;2023-07-31T00:39:06;17.70;99.90
46440;DHT22;32138;50.966;6.968;2023-07-31T00:40:37;17.80;99.90
46440;DHT22;32138;50.966;6.968;2023-07-31T00:42:08;17.80;99.90
46440;DHT22;32138;50.966;6.968;2023-07-31T00:43:38;17.70;99.90
46440;DHT22;32138;50.966;6.968;2023-07-31T00:45:09;17.70;99.90
46440;DHT22;32138;50.966;6.968;2023-07-31T00:46:40;17.70;99.90
46440;DHT22;32138;50.966;6.968;2023-07-31T00:48:11;17.70;99.90
46440;DHT22;32138;50.966;6.968;2023-07-31T00:49:42;17.70;99.90
46440;DHT22;32138;50.966;6.968;2023-07-31T00:51:13;17.70;99.90
46440;DHT22;32138;50.966;6.968;2023-07-31T00:52:44;17.70;99.90
46440;DHT22;32138;50.966;6.968;2023-07-31T00:54:15;17.70;99.90
46440;DHT22;32138;50.966;6.968;2023-07-31T00:55:46;17.80;99.90
46440;DHT22;32138;50.966;6.968;2023-07-31T00:57:17;17.80;99.90
46440;DHT22;32138;50.966;6.968;2023-07-31T00:58:47;17.80;99.90
46440;DHT22;32138;50.966;6.968;2023-07-31T01:00:18;17.80;99.90
46440;DHT22;32138;50.966;6.968;2023-07-31T01:01:50;17.90;99.90
46440;DHT22;32138;50.966;6.968;2023-07-31T01:03:20;17.80;99.90
46440;DHT22;32138;50.966;6.968;2023-07-31T01:04:51;17.80;99.90
46440;DHT22;32138;50.966;6.968;2023-07-31T01:10:26;17.80;99.90
46440;DHT22;32138;50.966;6.968;2023-07-31T01:12:02;17.80;99.90
46440;DHT22;32138;50.966;6.968;2023-07-31T01:13:34;17.80;99.90
46440;DHT22;32138;50.966;6.968;2023-07-31T01:15:07;17.80;99.90
46440;DHT22;32138;50.966;6.968;2023-07-31T01:16:41;17.80;99.90
46440;DHT22;32138;50.966;6.968;2023-07-31T01:18:12;17.90;99.90
46440;DHT22;32138;50.966;6.968;2023-07-31T01:19:43;17.90;99.90
46440;DHT22;32138;50.966;6.968;2023-07-31T01:26:53;17.80;99.90
46440;DHT22;32138;50.966;6.968;2023-07-31T01:28:43;17.80;99.90
46440;DHT22;32138;50.966;6.968;2023-07-31T01:30:27;17.80;99.90
46440;DHT22;32138;50.966;6.968;2023-07-31T01:32:06;17.90;99.90
46440;DHT22;32138;50.966;6.968;2023-07-31T01:33:38;18.00;99.90
46440;DHT22;32138;50.966;6.968;2023-07-31T01:35:08;18.00;99.90
46440;DHT22;32138;50.966;6.968;2023-07-31T01:36:40;18.00;99.90
46440;DHT22;32138;50.966;6.968;2023-07-31T01:38:10;18.10;99.90
46440;DHT22;32138;50.966;6.968;2023-07-31T01:39:42;18.00;99.90
46440;DHT22;32138;50.966;6.968;2023-07-31T01:41:12;18.00;99.90
46440;DHT22;32138;50.966;6.968;2023-07-31T01:42:44;18.00;99.90
46440;DHT22;32138;50.966;6.968;2023-07-31T01:44:14;18.00;99.90
46440;DHT22;32138;50.966;6.968;2023-07-31T01:45:45;18.10;99.90
46440;DHT22;32138;50.966;6.968;2023-07-31T01:47:16;18.10;99.90
46440;DHT22;32138;50.966;6.968;2023-07-31T01:48:47;18.00;99.90
46440;DHT22;32138;50.966;6.968;2023-07-31T01:50:17;18.00;99.90
46440;DHT22;32138;50.966;6.968;2023-07-31T01:51:48;18.10;99.90
46440;DHT22;32138;50.966;6.968;2023-07-31T01:53:19;18.00;99.90
46440;DHT22;32138;50.966;6.968;2023-07-31T01:54:49;18.00;99.90
46440;DHT22;32138;50.966;6.968;2023-07-31T01:56:20;18.00;99.90
46440;DHT22;32138;50.966;6.968;2023-07-31T01:57:51;17.90;99.90
46440;DHT22;32138;50.966;6.968;2023-07-31T01:59:22;18.00;99.90
46440;DHT22;32138;50.966;6.968;2023-07-31T02:00:53;17.90;99.90
46440;DHT22;32138;50.966;6.968;2023-07-31T02:02:24;18.00;99.90
46440;DHT22;32138;50.966;6.968;2023-07-31T02:03:55;18.00;99.90
46440;DHT22;32138;50.966;6.968;2023-07-31T02:05:25;18.00;99.90
46440;DHT22;32138;50.966;6.968;2023-07-31T02:06:56;18.00;99.90
46440;DHT22;32138;50.966;6.968;2023-07-31T02:08:27;18.00;99.90
46440;DHT22;32138;50.966;6.968;2023-07-31T02:09:57;18.00;99.90
46440;DHT22;32138;50.966;6.968;2023-07-31T02:11:28;18.10;99.90
46440;DHT22;32138;50.966;6.968;2023-07-31T02:12:59;18.10;99.90
46440;DHT22;32138;50.966;6.968;2023-07-31T02:14:30;18.00;99.90
46440;DHT22;32138;50.966;6.968;2023-07-31T02:16:00;18.00;99.90
46440;DHT22;32138;50.966;6.968;2023-07-31T02:17:31;18.00;99.90
46440;DHT22;32138;50.966;6.968;2023-07-31T02:19:02;18.00;99.90
46440;DHT22;32138;50.966;6.968;2023-07-31T02:20:36;18.10;99.90
46440;DHT22;32138;50.966;6.968;2023-07-31T02:22:06;18.10;99.90
46440;DHT22;32138;50.966;6.968;2023-07-31T02:23:37;18.10;99.90
46440;DHT22;32138;50.966;6.968;2023-07-31T02:25:08;18.10;99.90
46440;DHT22;32138;50.966;6.968;2023-07-31T02:26:39;18.10;99.90
46440;DHT22;32138;50.966;6.968;2023-07-31T02:28:10;18.00;99.90
46440;DHT22;32138;50.966;6.968;2023-07-31T02:29:40;18.00;99.90
46440;DHT22;32138;50.966;6.968;2023-07-31T02:31:11;18.10;99.90
46440;DHT22;32138;50.966;6.968;2023-07-31T02:32:42;18.10;99.90
46440;DHT22;32138;50.966;6.968;2023-07-31T02:34:13;18.10;99.90
46440;DHT22;32138;50.966;6.968;2023-07-31T02:35:43;18.10;99.90
46440;DHT22;32138;50.966;6.968;2023-07-31T02:37:14;18.00;99.90
46440;DHT22;32138;50.966;6.968;2023-07-31T02:38:45;18.00;99.90
46440;DHT22;32138;50.966;6.968;2023-07-31T02:40:15;18.10;99.90
46440;DHT22;32138;50.966;6.968;2023-07-31T02:41:47;18.10;99.90
46440;DHT22;32138;50.966;6.968;2023-07-31T02:43:18;18.10;99.90
46440;DHT22;32138;50.966;6.968;2023-07-31T02:44:49;18.10;99.90
46440;DHT22;32138;50.966;6.968;2023-07-31T02:46:21;18.10;99.90
46440;DHT22;32138;50.966;6.968;2023-07-31T02:47:54;18.10;99.90
46440;DHT22;32138;50.966;6.968;2023-07-31T02:49:25;18.10;99.90
46440;DHT22;32138;50.966;6.968;2023-07-31T02:50:56;18.10;99.90
46440;DHT22;32138;50.966;6.968;2023-07-31T02:52:26;18.10;99.90
46440;DHT22;32138;50.966;6.968;2023-07-31T02:53:57;18.10;99.90
46440;DHT22;32138;50.966;6.968;2023-07-31T02:55:28;18.20;99.90
46440;DHT22;32138;50.966;6.968;2023-07-31T02:56:59;18.20;99.90
46440;DHT22;32138;50.966;6.968;2023-07-31T02:58:29;18.20;99.90
46440;DHT22;32138;50.966;6.968;2023-07-31T03:00:00;18.20;99.90
46440;DHT22;32138;50.966;6.968;2023-07-31T03:01:31;18.10;99.90
46440;DHT22;32138;50.966;6.968;2023-07-31T03:03:02;18.10;99.90
46440;DHT22;32138;50.966;6.968;2023-07-31T03:04:32;18.20;99.90
46440;DHT22;32138;50.966;6.968;2023-07-31T03:06:03;18.20;99.90
46440;DHT22;32138;50.966;6.968;2023-07-31T03:07:34;18.10;99.90
46440;DHT22;32138;50.966;6.968;2023-07-31T03:09:05;18.10;99.90
46440;DHT22;32138;50.966;6.968;2023-07-31T03:10:35;18.20;99.90
46440;DHT22;32138;50.966;6.968;2023-07-31T03:12:06;18.20;99.90
46440;DHT22;32138;50.966;6.968;2023-07-31T03:13:38;18.20;99.90
46440;DHT22;32138;50.966;6.968;2023-07-31T03:15:09;18.30;99.90
46440;DHT22;32138;50.966;6.968;2023-07-31T03:16:40;18.30;99.90
46440;DHT22;32138;50.966;6.968;2023-07-31T03:18:11;18.30;99.90
46440;DHT22;32138;50.966;6.968;2023-07-31T03:19:41;18.30;99.90
46440;DHT22;32138;50.966;6.968;2023-07-31T03:21:13;18.30;99.90
46440;DHT22;32138;50.966;6.968;2023-07-31T03:22:44;18.30;99.90
46440;DHT22;32138;50.966;6.968;2023-07-31T03:24:15;18.30;99.90
46440;DHT22;32138;50.966;6.968;2023-07-31T03:25:59;18.20;99.90
46440;DHT22;32138;50.966;6.968;2023-07-31T03:27:30;18.20;99.90
46440;DHT22;32138;50.966;6.968;2023-07-31T03:29:01;18.20;99.90
46440;DHT22;32138;50.966;6.968;2023-07-31T03:30:32;18.20;99.90
46440;DHT22;32138;50.966;6.968;2023-07-31T03:32:02;18.20;99.90
46440;DHT22;32138;50.966;6.968;2023-07-31T03:33:33;18.20;99.90
46440;DHT22;32138;50.966;6.968;2023-07-31T03:35:05;18.20;99.90
46440;DHT22;32138;50.966;6.968;2023-07-31T03:36:36;18.20;99.90
46440;DHT22;32138;50.966;6.968;2023-07-31T03:38:06;18.20;99.90
46440;DHT22;32138;50.966;6.968;2023-07-31T03:39:38;18.20;99.90
46440;DHT22;32138;50.966;6.968;2023-07-31T03:41:08;18.20;99.90
46440;DHT22;32138;50.966;6.968;2023-07-31T03:42:40;18.20;99.90
46440;DHT22;32138;50.966;6.968;2023-07-31T03:44:11;18.20;99.90
46440;DHT22;32138;50.966;6.968;2023-07-31T03:45:42;18.20;99.90
46440;DHT22;32138;50.966;6.968;2023-07-31T03:47:13;18.20;99.90
46440;DHT22;32138;50.966;6.968;2023-07-31T03:48:43;18.20;99.90
46440;DHT22;32138;50.966;6.968;2023-07-31T03:50:14;18.10;99.90
46440;DHT22;32138;50.966;6.968;2023-07-31T03:51:45;18.00;99.90
46440;DHT22;32138;50.966;6.968;2023-07-31T03:53:16;18.00;99.90
46440;DHT22;32138;50.966;6.968;2023-07-31T03:54:46;18.10;99.90
46440;DHT22;32138;50.966;6.968;2023-07-31T03:56:17;18.10;99.90
46440;DHT22;32138;50.966;6.968;2023-07-31T03:57:48;18.10;99.90
46440;DHT22;32138;50.966;6.968;2023-07-31T03:59:19;18.10;99.90
46440;DHT22;32138;50.966;6.968;2023-07-31T04:00:49;18.10;99.90
46440;DHT22;32138;50.966;6.968;2023-07-31T04:02:20;18.10;99.90
46440;DHT22;32138;50.966;6.968;2023-07-31T04:03:51;18.10;99.90
46440;DHT22;32138;50.966;6.968;2023-07-31T04:05:22;18.10;99.90
46440;DHT22;32138;50.966;6.968;2023-07-31T04:06:52;18.10;99.90
46440;DHT22;32138;50.966;6.968;2023-07-31T04:08:23;18.10;99.90
46440;DHT22;32138;50.966;6.968;2023-07-31T04:09:54;18.10;99.90
46440;DHT22;32138;50.966;6.968;2023-07-31T04:11:25;18.00;99.90
46440;DHT22;32138;50.966;6.968;2023-07-31T04:12:56;18.10;99.90
46440;DHT22;32138;50.966;6.968;2023-07-31T04:14:27;18.00;99.90
46440;DHT22;32138;50.966;6.968;2023-07-31T04:15:57;18.10;99.90
46440;DHT22;32138;50.966;6.968;2023-07-31T04:17:28;18.20;99.90
46440;DHT22;32138;50.966;6.968;2023-07-31T04:18:59;18.20;99.90
46440;DHT22;32138;50.966;6.968;2023-07-31T04:20:29;18.30;99.90
46440;DHT22;32138;50.966;6.968;2023-07-31T04:22:00;18.20;99.90
46440;DHT22;32138;50.966;6.968;2023-07-31T04:23:31;18.20;99.90
46440;DHT22;32138;50.966;6.968;2023-07-31T04:25:02;18.20;99.90
46440;DHT22;32138;50.966;6.968;2023-07-31T04:26:32;18.20;99.90
46440;DHT22;32138;50.966;6.968;2023-07-31T04:28:03;18.10;99.90
46440;DHT22;32138;50.966;6.968;2023-07-31T04:29:34;18.10;99.90
46440;DHT22;32138;50.966;6.968;2023-07-31T04:31:05;18.20;99.90
46440;DHT22;32138;50.966;6.968;2023-07-31T04:32:35;18.20;99.90
46440;DHT22;32138;50.966;6.968;2023-07-31T04:34:06;18.10;99.90
46440;DHT22;32138;50.966;6.968;2023-07-31T04:35:37;18.20;99.90
46440;DHT22;32138;50.966;6.968;2023-07-31T04:37:07;18.20;99.90
46440;DHT22;32138;50.966;6.968;2023-07-31T04:38:38;18.30;99.90
46440;DHT22;32138;50.966;6.968;2023-07-31T04:40:09;18.30;99.90
46440;DHT22;32138;50.966;6.968;2023-07-31T04:41:40;18.20;99.90
46440;DHT22;32138;50.966;6.968;2023-07-31T04:43:11;18.20;99.90
46440;DHT22;32138;50.966;6.968;2023-07-31T04:44:42;18.20;99.90
46440;DHT22;32138;50.966;6.968;2023-07-31T04:46:12;18.30;99.90
46440;DHT22;32138;50.966;6.968;2023-07-31T04:47:43;18.20;99.90
46440;DHT22;32138;50.966;6.968;2023-07-31T04:49:14;18.20;99.90
46440;DHT22;32138;50.966;6.968;2023-07-31T04:50:44;18.20;99.90
46440;DHT22;32138;50.966;6.968;2023-07-31T04:52:15;18.20;99.90
46440;DHT22;32138;50.966;6.968;2023-07-31T04:53:46;18.20;99.90
46440;DHT22;32138;50.966;6.968;2023-07-31T04:55:17;18.20;99.90
46440;DHT22;32138;50.966;6.968;2023-07-31T04:56:47;18.30;99.90
46440;DHT22;32138;50.966;6.968;2023-07-31T04:58:18;18.30;99.90
46440;DHT22;32138;50.966;6.968;2023-07-31T04:59:49;18.30;99.90
46440;DHT22;32138;50.966;6.968;2023-07-31T05:01:20;18.30;99.90
46440;DHT22;32138;50.966;6.968;2023-07-31T05:02:50;18.30;99.90
46440;DHT22;32138;50.966;6.968;2023-07-31T05:04:21;18.30;99.90
46440;DHT22;32138;50.966;6.968;2023-07-31T05:05:52;18.30;99.90
46440;DHT22;32138;50.966;6.968;2023-07-31T05:07:22;18.30;99.90
46440;DHT22;32138;50.966;6.968;2023-07-31T05:08:53;18.30;99.90
46440;DHT22;32138;50.966;6.968;2023-07-31T05:10:24;18.30;99.90
46440;DHT22;32138;50.966;6.968;2023-07-31T05:11:55;18.30;99.90
46440;DHT22;32138;50.966;6.968;2023-07-31T05:13:25;18.40;99.90
46440;DHT22;32138;50.966;6.968;2023-07-31T05:14:56;18.30;99.90
46440;DHT22;32138;50.966;6.968;2023-07-31T05:16:27;18.30;99.90
46440;DHT22;32138;50.966;6.968;2023-07-31T05:17:57;18.40;99.90
46440;DHT22;32138;50.966;6.968;2023-07-31T05:19:28;18.40;99.90
46440;DHT22;32138;50.966;6.968;2023-07-31T05:20:59;18.40;99.90
46440;DHT22;32138;50.966;6.968;2023-07-31T05:22:29;18.40;99.90
46440;DHT22;32138;50.966;6.968;2023-07-31T05:24:00;18.50;99.90
46440;DHT22;32138;50.966;6.968;2023-07-31T05:25:31;18.50;99.90
46440;DHT22;32138;50.966;6.968;2023-07-31T05:27:02;18.50;99.90
46440;DHT22;32138;50.966;6.968;2023-07-31T05:28:35;18.50;99.90
46440;DHT22;32138;50.966;6.968;2023-07-31T05:30:06;18.50;99.90
46440;DHT22;32138;50.966;6.968;2023-07-31T05:31:38;18.50;99.90
46440;DHT22;32138;50.966;6.968;2023-07-31T05:33:09;18.50;99.90
46440;DHT22;32138;50.966;6.968;2023-07-31T05:34:39;18.50;99.90
46440;DHT22;32138;50.966;6.968;2023-07-31T05:36:10;18.50;99.90
46440;DHT22;32138;50.966;6.968;2023-07-31T05:37:41;18.60;99.90
46440;DHT22;32138;50.966;6.968;2023-07-31T05:39:12;18.50;99.90
46440;DHT22;32138;50.966;6.968;2023-07-31T05:40:43;18.60;99.90
46440;DHT22;32138;50.966;6.968;2023-07-31T05:42:14;18.50;99.90
46440;DHT22;32138;50.966;6.968;2023-07-31T05:43:44;18.60;99.90
46440;DHT22;32138;50.966;6.968;2023-07-31T05:45:16;18.60;99.90
46440;DHT22;32138;50.966;6.968;2023-07-31T05:46:46;18.60;99.90
46440;DHT22;32138;50.966;6.968;2023-07-31T05:48:17;18.60;99.90
46440;DHT22;32138;50.966;6.968;2023-07-31T05:49:49;18.60;99.90
46440;DHT22;32138;50.966;6.968;2023-07-31T05:51:22;18.60;99.90
46440;DHT22;32138;50.966;6.968;2023-07-31T05:52:53;18.60;99.90
46440;DHT22;32138;50.966;6.968;2023-07-31T05:54:24;18.60;99.90
46440;DHT22;32138;50.966;6.968;2023-07-31T05:55:55;18.60;99.90
46440;DHT22;32138;50.966;6.968;2023-07-31T05:57:26;18.50;99.90
46440;DHT22;32138;50.966;6.968;2023-07-31T05:58:56;18.60;99.90
46440;DHT22;32138;50.966;6.968;2023-07-31T06:00:27;18.60;99.90
46440;DHT22;32138;50.966;6.968;2023-07-31T06:01:59;18.60;99.90
46440;DHT22;32138;50.966;6.968;2023-07-31T06:03:30;18.60;99.90
46440;DHT22;32138;50.966;6.968;2023-07-31T06:05:00;18.60;99.90
46440;DHT22;32138;50.966;6.968;2023-07-31T06:06:31;18.60;99.90
46440;DHT22;32138;50.966;6.968;2023-07-31T06:08:02;18.60;99.90
46440;DHT22;32138;50.966;6.968;2023-07-31T06:09:33;18.60;99.90
46440;DHT22;32138;50.966;6.968;2023-07-31T06:11:03;18.60;99.90
46440;DHT22;32138;50.966;6.968;2023-07-31T06:12:35;18.60;99.90
46440;DHT22;32138;50.966;6.968;2023-07-31T06:14:06;18.60;99.90
46440;DHT22;32138;50.966;6.968;2023-07-31T06:15:37;18.50;99.90
46440;DHT22;32138;50.966;6.968;2023-07-31T06:17:07;18.50;99.90
46440;DHT22;32138;50.966;6.968;2023-07-31T06:20:12;18.40;99.90
46440;DHT22;32138;50.966;6.968;2023-07-31T06:21:43;18.40;99.90
46440;DHT22;32138;50.966;6.968;2023-07-31T06:23:14;18.30;99.90
46440;DHT22;32138;50.966;6.968;2023-07-31T06:24:46;18.30;99.90
46440;DHT22;32138;50.966;6.968;2023-07-31T06:26:17;18.30;99.90
46440;DHT22;32138;50.966;6.968;2023-07-31T06:27:48;18.20;99.90
46440;DHT22;32138;50.966;6.968;2023-07-31T06:29:18;18.20;99.90
46440;DHT22;32138;50.966;6.968;2023-07-31T06:30:49;18.20;99.90
46440;DHT22;32138;50.966;6.968;2023-07-31T06:32:20;18.10;99.90
46440;DHT22;32138;50.966;6.968;2023-07-31T06:33:52;18.10;99.90
46440;DHT22;32138;50.966;6.968;2023-07-31T06:35:22;18.20;99.90
46440;DHT22;32138;50.966;6.968;2023-07-31T06:36:53;18.20;99.90
46440;DHT22;32138;50.966;6.968;2023-07-31T06:38:25;18.10;99.90
46440;DHT22;32138;50.966;6.968;2023-07-31T06:39:57;18.10;99.90
46440;DHT22;32138;50.966;6.968;2023-07-31T06:41:27;18.20;99.90
46440;DHT22;32138;50.966;6.968;2023-07-31T06:42:58;18.20;99.90
46440;DHT22;32138;50.966;6.968;2023-07-31T06:44:29;18.20;99.90
46440;DHT22;32138;50.966;6.968;2023-07-31T06:46:05;18.20;99.90
46440;DHT22;32138;50.966;6.968;2023-07-31T06:47:37;18.20;99.90
46440;DHT22;32138;50.966;6.968;2023-07-31T06:49:08;18.30;99.90
46440;DHT22;32138;50.966;6.968;2023-07-31T06:50:38;18.30;99.90
46440;DHT22;32138;50.966;6.968;2023-07-31T06:52:09;18.20;99.90
46440;DHT22;32138;50.966;6.968;2023-07-31T06:53:41;18.30;99.90
46440;DHT22;32138;50.966;6.968;2023-07-31T06:55:25;18.30;99.90
46440;DHT22;32138;50.966;6.968;2023-07-31T06:56:56;18.30;99.90
46440;DHT22;32138;50.966;6.968;2023-07-31T06:58:26;18.30;99.90
46440;DHT22;32138;50.966;6.968;2023-07-31T06:59:58;18.30;99.90
46440;DHT22;32138;50.966;6.968;2023-07-31T07:01:29;18.30;99.90
46440;DHT22;32138;50.966;6.968;2023-07-31T07:03:00;18.30;99.90
46440;DHT22;32138;50.966;6.968;2023-07-31T07:04:30;18.30;99.90
46440;DHT22;32138;50.966;6.968;2023-07-31T07:06:01;18.40;99.90
46440;DHT22;32138;50.966;6.968;2023-07-31T07:07:32;18.50;99.90
46440;DHT22;32138;50.966;6.968;2023-07-31T07:09:03;18.40;99.90
46440;DHT22;32138;50.966;6.968;2023-07-31T07:10:34;18.40;99.90
46440;DHT22;32138;50.966;6.968;2023-07-31T07:12:05;18.50;99.90
46440;DHT22;32138;50.966;6.968;2023-07-31T07:13:36;18.50;99.90
46440;DHT22;32138;50.966;6.968;2023-07-31T07:15:08;18.50;99.90
46440;DHT22;32138;50.966;6.968;2023-07-31T07:16:39;18.40;99.90
46440;DHT22;32138;50.966;6.968;2023-07-31T07:18:11;18.50;99.90
46440;DHT22;32138;50.966;6.968;2023-07-31T07:19:42;18.40;99.90
46440;DHT22;32138;50.966;6.968;2023-07-31T07:21:12;18.50;99.90
46440;DHT22;32138;50.966;6.968;2023-07-31T07:22:46;18.60;99.90
46440;DHT22;32138;50.966;6.968;2023-07-31T07:24:16;18.60;99.90
46440;DHT22;32138;50.966;6.968;2023-07-31T07:25:47;18.60;99.90
46440;DHT22;32138;50.966;6.968;2023-07-31T07:27:18;18.60;99.90
46440;DHT22;32138;50.966;6.968;2023-07-31T07:28:49;18.60;99.90
46440;DHT22;32138;50.966;6.968;2023-07-31T07:30:19;18.50;99.90
46440;DHT22;32138;50.966;6.968;2023-07-31T07:31:50;18.50;99.90
46440;DHT22;32138;50.966;6.968;2023-07-31T07:33:21;18.50;99.90
46440;DHT22;32138;50.966;6.968;2023-07-31T07:34:52;18.50;99.90
46440;DHT22;32138;50.966;6.968;2023-07-31T07:36:27;18.60;99.90
46440;DHT22;32138;50.966;6.968;2023-07-31T07:37:58;18.70;99.90
46440;DHT22;32138;50.966;6.968;2023-07-31T07:39:29;18.70;99.90
46440;DHT22;32138;50.966;6.968;2023-07-31T07:41:03;18.60;99.90
46440;DHT22;32138;50.966;6.968;2023-07-31T07:42:34;18.50;99.90
46440;DHT22;32138;50.966;6.968;2023-07-31T07:44:04;18.50;99.90
46440;DHT22;32138;50.966;6.968;2023-07-31T07:45:35;18.40;99.90
46440;DHT22;32138;50.966;6.968;2023-07-31T07:47:06;18.30;99.90
46440;DHT22;32138;50.966;6.968;2023-07-31T07:48:37;18.30;99.90
46440;DHT22;32138;50.966;6.968;2023-07-31T07:50:08;18.30;99.90
46440;DHT22;32138;50.966;6.968;2023-07-31T07:51:42;18.30;99.90
46440;DHT22;32138;50.966;6.968;2023-07-31T07:53:13;18.30;99.90
46440;DHT22;32138;50.966;6.968;2023-07-31T07:54:44;18.30;99.90
46440;DHT22;32138;50.966;6.968;2023-07-31T07:56:15;18.30;99.90
46440;DHT22;32138;50.966;6.968;2023-07-31T07:57:45;18.30;99.90
46440;DHT22;32138;50.966;6.968;2023-07-31T07:59:16;18.20;99.90
46440;DHT22;32138;50.966;6.968;2023-07-31T08:00:53;18.20;99.90
46440;DHT22;32138;50.966;6.968;2023-07-31T08:02:23;18.20;99.90
46440;DHT22;32138;50.966;6.968;2023-07-31T08:03:54;18.20;99.90
46440;DHT22;32138;50.966;6.968;2023-07-31T08:05:25;18.10;99.90
46440;DHT22;32138;50.966;6.968;2023-07-31T08:06:56;18.10;99.90
46440;DHT22;32138;50.966;6.968;2023-07-31T08:08:28;18.00;99.90
46440;DHT22;32138;50.966;6.968;2023-07-31T08:09:59;18.00;99.90
46440;DHT22;32138;50.966;6.968;2023-07-31T08:11:30;18.00;99.90
46440;DHT22;32138;50.966;6.968;2023-07-31T08:13:00;17.90;99.90
46440;DHT22;32138;50.966;6.968;2023-07-31T08:14:31;17.90;99.90
46440;DHT22;32138;50.966;6.968;2023-07-31T08:16:03;18.00;99.90
46440;DHT22;32138;50.966;6.968;2023-07-31T08:17:34;18.00;99.90
46440;DHT22;32138;50.966;6.968;2023-07-31T08:19:05;18.00;99.90
46440;DHT22;32138;50.966;6.968;2023-07-31T08:20:36;17.80;99.90
46440;DHT22;32138;50.966;6.968;2023-07-31T08:22:06;17.90;99.90
46440;DHT22;32138;50.966;6.968;2023-07-31T08:23:37;17.90;99.90
46440;DHT22;32138;50.966;6.968;2023-07-31T08:25:08;17.90;99.90
46440;DHT22;32138;50.966;6.968;2023-07-31T08:26:39;18.00;99.90
46440;DHT22;32138;50.966;6.968;2023-07-31T08:28:10;18.00;99.90
46440;DHT22;32138;50.966;6.968;2023-07-31T08:29:40;18.00;99.90
46440;DHT22;32138;50.966;6.968;2023-07-31T08:31:11;18.00;99.90
46440;DHT22;32138;50.966;6.968;2023-07-31T08:32:42;17.90;99.90
46440;DHT22;32138;50.966;6.968;2023-07-31T08:34:13;17.90;99.90
46440;DHT22;32138;50.966;6.968;2023-07-31T08:35:43;17.90;99.90
46440;DHT22;32138;50.966;6.968;2023-07-31T08:37:14;17.90;99.90
46440;DHT22;32138;50.966;6.968;2023-07-31T08:38:45;17.90;99.90
46440;DHT22;32138;50.966;6.968;2023-07-31T08:40:16;17.90;99.90
46440;DHT22;32138;50.966;6.968;2023-07-31T08:41:47;18.00;99.90
46440;DHT22;32138;50.966;6.968;2023-07-31T08:43:19;17.90;99.90
46440;DHT22;32138;50.966;6.968;2023-07-31T08:44:51;17.90;99.90
46440;DHT22;32138;50.966;6.968;2023-07-31T08:46:22;17.90;99.90
46440;DHT22;32138;50.966;6.968;2023-07-31T08:47:56;17.90;99.90
46440;DHT22;32138;50.966;6.968;2023-07-31T08:49:29;18.00;99.90
46440;DHT22;32138;50.966;6.968;2023-07-31T08:51:01;18.10;99.90
46440;DHT22;32138;50.966;6.968;2023-07-31T08:52:31;18.10;99.90
46440;DHT22;32138;50.966;6.968;2023-07-31T08:54:02;18.10;99.90
46440;DHT22;32138;50.966;6.968;2023-07-31T08:55:37;18.10;99.90
46440;DHT22;32138;50.966;6.968;2023-07-31T08:57:09;18.10;99.90
46440;DHT22;32138;50.966;6.968;2023-07-31T08:58:40;18.00;99.90
46440;DHT22;32138;50.966;6.968;2023-07-31T09:00:12;18.10;99.90
46440;DHT22;32138;50.966;6.968;2023-07-31T09:01:48;18.10;99.90
46440;DHT22;32138;50.966;6.968;2023-07-31T09:03:23;18.10;99.90
46440;DHT22;32138;50.966;6.968;2023-07-31T09:04:55;18.20;99.90
46440;DHT22;32138;50.966;6.968;2023-07-31T09:06:27;18.20;99.90
46440;DHT22;32138;50.966;6.968;2023-07-31T09:08:01;18.20;99.90
46440;DHT22;32138;50.966;6.968;2023-07-31T09:09:33;18.20;99.90
46440;DHT22;32138;50.966;6.968;2023-07-31T09:11:04;18.20;99.90
46440;DHT22;32138;50.966;6.968;2023-07-31T09:12:35;18.20;99.90
46440;DHT22;32138;50.966;6.968;2023-07-31T09:14:08;18.20;99.90
46440;DHT22;32138;50.966;6.968;2023-07-31T09:15:40;18.10;99.90
46440;DHT22;32138;50.966;6.968;2023-07-31T09:17:14;18.10;99.90
46440;DHT22;32138;50.966;6.968;2023-07-31T09:18:55;18.10;99.90
46440;DHT22;32138;50.966;6.968;2023-07-31T09:20:27;18.10;99.90
46440;DHT22;32138;50.966;6.968;2023-07-31T09:21:58;18.10;99.90
46440;DHT22;32138;50.966;6.968;2023-07-31T09:23:41;18.00;99.90
46440;DHT22;32138;50.966;6.968;2023-07-31T09:25:25;18.00;99.90
46440;DHT22;32138;50.966;6.968;2023-07-31T09:26:57;17.90;99.90
46440;DHT22;32138;50.966;6.968;2023-07-31T09:28:31;17.90;99.90
46440;DHT22;32138;50.966;6.968;2023-07-31T09:30:02;17.90;99.90
46440;DHT22;32138;50.966;6.968;2023-07-31T09:33:09;17.80;99.90
46440;DHT22;32138;50.966;6.968;2023-07-31T09:34:40;17.90;99.90
46440;DHT22;32138;50.966;6.968;2023-07-31T09:36:13;18.00;99.90
46440;DHT22;32138;50.966;6.968;2023-07-31T09:37:51;17.90;99.90
46440;DHT22;32138;50.966;6.968;2023-07-31T09:39:51;18.00;99.90
46440;DHT22;32138;50.966;6.968;2023-07-31T09:41:29;18.00;99.90
46440;DHT22;32138;50.966;6.968;2023-07-31T09:43:08;18.00;99.90
46440;DHT22;32138;50.966;6.968;2023-07-31T09:44:41;18.10;99.90
46440;DHT22;32138;50.966;6.968;2023-07-31T09:46:15;18.10;99.90
46440;DHT22;32138;50.966;6.968;2023-07-31T09:47:48;18.20;99.90
46440;DHT22;32138;50.966;6.968;2023-07-31T09:49:19;18.30;99.90
46440;DHT22;32138;50.966;6.968;2023-07-31T09:50:50;18.30;99.90